sensor_id;sensor_type;location;lat;lon;timestamp;P1;durP1;ratioP1;P2;durP2;ratioP2
52956;SDS011;38819;42.692;23.342;2023-08-07T00:01:20;1.10;;;1.00;;
52956;SDS011;38819;42.692;23.342;2023-08-07T00:03:46;0.88;;;0.88;;
52956;SDS011;38819;42.692;23.342;2023-08-07T00:06:12;0.80;;;0.80;;
52956;SDS011;38819;42.692;23.342;2023-08-07T00:08:38;0.80;;;0.80;;
52956;SDS011;38819;42.692;23.342;2023-08-07T00:11:06;1.20;;;1.10;;
52956;SDS011;38819;42.692;23.342;2023-08-07T00:13:36;1.15;;;1.05;;
52956;SDS011;38819;42.692;23.342;2023-08-07T00:16:02;1.27;;;1.17;;
52956;SDS011;38819;42.692;23.342;2023-08-07T00:18:28;0.90;;;0.90;;
52956;SDS011;38819;42.692;23.342;2023-08-07T00:20:54;1.95;;;1.27;;
52956;SDS011;38819;42.692;23.342;2023-08-07T00:23:20;0.95;;;0.95;;
52956;SDS011;38819;42.692;23.342;2023-08-07T00:25:45;1.73;;;1.00;;
52956;SDS011;38819;42.692;23.342;2023-08-07T00:28:10;4.63;;;1.17;;
52956;SDS011;38819;42.692;23.342;2023-08-07T00:30:36;1.35;;;1.00;;
52956;SDS011;38819;42.692;23.342;2023-08-07T00:33:01;1.30;;;1.20;;
52956;SDS011;38819;42.692;23.342;2023-08-07T00:35:27;3.85;;;1.40;;
52956;SDS011;38819;42.692;23.342;2023-08-07T00:37:53;1.48;;;1.13;;
52956;SDS011;38819;42.692;23.342;2023-08-07T00:40:20;1.50;;;1.08;;
52956;SDS011;38819;42.692;23.342;2023-08-07T00:42:45;1.05;;;0.95;;
52956;SDS011;38819;42.692;23.342;2023-08-07T00:45:11;0.98;;;0.98;;
52956;SDS011;38819;42.692;23.342;2023-08-07T00:47:36;1.98;;;1.23;;
52956;SDS011;38819;42.692;23.342;2023-08-07T00:50:03;1.50;;;1.40;;
52956;SDS011;38819;42.692;23.342;2023-08-07T00:52:29;1.65;;;1.40;;
52956;SDS011;38819;42.692;23.342;2023-08-07T00:54:56;2.00;;;1.20;;
52956;SDS011;38819;42.692;23.342;2023-08-07T00:57:21;1.35;;;1.25;;
52956;SDS011;38819;42.692;23.342;2023-08-07T00:59:48;1.67;;;1.30;;
52956;SDS011;38819;42.692;23.342;2023-08-07T01:02:14;1.27;;;1.17;;
52956;SDS011;38819;42.692;23.342;2023-08-07T01:04:40;1.63;;;1.52;;
52956;SDS011;38819;42.692;23.342;2023-08-07T01:07:05;1.65;;;1.55;;
52956;SDS011;38819;42.692;23.342;2023-08-07T01:09:31;2.20;;;2.10;;
52956;SDS011;38819;42.692;23.342;2023-08-07T01:12:02;1.60;;;1.50;;
52956;SDS011;38819;42.692;23.342;2023-08-07T01:14:49;1.70;;;1.60;;
52956;SDS011;38819;42.692;23.342;2023-08-07T01:17:21;2.15;;;1.98;;
52956;SDS011;38819;42.692;23.342;2023-08-07T01:19:50;2.10;;;2.00;;
52956;SDS011;38819;42.692;23.342;2023-08-07T01:22:17;2.13;;;2.03;;
52956;SDS011;38819;42.692;23.342;2023-08-07T01:24:44;1.85;;;1.75;;
52956;SDS011;38819;42.692;23.342;2023-08-07T01:29:57;1.90;;;1.80;;
52956;SDS011;38819;42.692;23.342;2023-08-07T01:35:17;3.05;;;2.05;;
52956;SDS011;38819;42.692;23.342;2023-08-07T01:37:47;2.85;;;1.98;;
52956;SDS011;38819;42.692;23.342;2023-08-07T01:40:14;2.15;;;2.00;;
52956;SDS011;38819;42.692;23.342;2023-08-07T01:42:41;2.15;;;2.05;;
52956;SDS011;38819;42.692;23.342;2023-08-07T01:47:34;3.38;;;2.30;;
52956;SDS011;38819;42.692;23.342;2023-08-07T01:50:00;2.13;;;2.03;;
52956;SDS011;38819;42.692;23.342;2023-08-07T01:52:25;2.25;;;2.15;;
52956;SDS011;38819;42.692;23.342;2023-08-07T01:54:51;2.53;;;2.42;;
52956;SDS011;38819;42.692;23.342;2023-08-07T01:57:17;2.60;;;2.50;;
52956;SDS011;38819;42.692;23.342;2023-08-07T01:59:42;3.50;;;2.53;;
52956;SDS011;38819;42.692;23.342;2023-08-07T02:02:08;2.72;;;2.45;;
52956;SDS011;38819;42.692;23.342;2023-08-07T02:04:34;2.28;;;2.17;;
52956;SDS011;38819;42.692;23.342;2023-08-07T02:06:59;3.22;;;2.28;;
52956;SDS011;38819;42.692;23.342;2023-08-07T02:09:25;2.38;;;2.28;;
52956;SDS011;38819;42.692;23.342;2023-08-07T02:11:50;2.80;;;2.60;;
52956;SDS011;38819;42.692;23.342;2023-08-07T02:14:15;2.78;;;2.40;;
52956;SDS011;38819;42.692;23.342;2023-08-07T02:16:41;2.20;;;2.10;;
52956;SDS011;38819;42.692;23.342;2023-08-07T02:19:06;3.10;;;2.50;;
52956;SDS011;38819;42.692;23.342;2023-08-07T02:21:32;2.53;;;2.40;;
52956;SDS011;38819;42.692;23.342;2023-08-07T02:23:57;2.60;;;2.50;;
52956;SDS011;38819;42.692;23.342;2023-08-07T02:26:23;2.90;;;2.42;;
52956;SDS011;38819;42.692;23.342;2023-08-07T02:28:48;3.03;;;2.80;;
52956;SDS011;38819;42.692;23.342;2023-08-07T02:31:13;3.95;;;2.47;;
52956;SDS011;38819;42.692;23.342;2023-08-07T02:33:39;2.85;;;2.60;;
52956;SDS011;38819;42.692;23.342;2023-08-07T02:36:06;2.90;;;2.70;;
52956;SDS011;38819;42.692;23.342;2023-08-07T02:38:31;2.83;;;2.67;;
52956;SDS011;38819;42.692;23.342;2023-08-07T02:40:57;2.80;;;2.60;;
52956;SDS011;38819;42.692;23.342;2023-08-07T02:43:22;2.88;;;2.67;;
52956;SDS011;38819;42.692;23.342;2023-08-07T02:45:48;3.50;;;2.83;;
52956;SDS011;38819;42.692;23.342;2023-08-07T02:48:13;2.70;;;2.50;;
52956;SDS011;38819;42.692;23.342;2023-08-07T02:50:38;3.40;;;2.88;;
52956;SDS011;38819;42.692;23.342;2023-08-07T02:53:04;3.72;;;2.90;;
52956;SDS011;38819;42.692;23.342;2023-08-07T02:55:29;3.30;;;3.03;;
52956;SDS011;38819;42.692;23.342;2023-08-07T02:57:55;3.33;;;3.05;;
52956;SDS011;38819;42.692;23.342;2023-08-07T03:00:20;2.88;;;2.67;;
52956;SDS011;38819;42.692;23.342;2023-08-07T03:02:45;2.92;;;2.70;;
52956;SDS011;38819;42.692;23.342;2023-08-07T03:05:11;3.42;;;2.63;;
52956;SDS011;38819;42.692;23.342;2023-08-07T03:07:36;4.00;;;2.60;;
52956;SDS011;38819;42.692;23.342;2023-08-07T03:10:02;4.20;;;3.08;;
52956;SDS011;38819;42.692;23.342;2023-08-07T03:12:28;3.03;;;2.78;;
52956;SDS011;38819;42.692;23.342;2023-08-07T03:14:54;5.20;;;2.92;;
52956;SDS011;38819;42.692;23.342;2023-08-07T03:17:19;2.83;;;2.63;;
52956;SDS011;38819;42.692;23.342;2023-08-07T03:19:45;11.25;;;3.03;;
52956;SDS011;38819;42.692;23.342;2023-08-07T03:22:11;4.35;;;2.78;;
52956;SDS011;38819;42.692;23.342;2023-08-07T03:24:37;3.08;;;2.88;;
52956;SDS011;38819;42.692;23.342;2023-08-07T03:27:02;3.53;;;2.83;;
52956;SDS011;38819;42.692;23.342;2023-08-07T03:29:28;3.05;;;2.75;;
52956;SDS011;38819;42.692;23.342;2023-08-07T03:31:53;2.60;;;2.40;;
52956;SDS011;38819;42.692;23.342;2023-08-07T03:34:19;4.70;;;3.13;;
52956;SDS011;38819;42.692;23.342;2023-08-07T03:36:44;3.30;;;3.10;;
52956;SDS011;38819;42.692;23.342;2023-08-07T03:39:10;3.13;;;2.92;;
52956;SDS011;38819;42.692;23.342;2023-08-07T03:41:37;3.40;;;3.10;;
52956;SDS011;38819;42.692;23.342;2023-08-07T03:44:02;6.35;;;3.03;;
52956;SDS011;38819;42.692;23.342;2023-08-07T03:46:28;3.10;;;2.90;;
52956;SDS011;38819;42.692;23.342;2023-08-07T03:48:53;3.85;;;3.47;;
52956;SDS011;38819;42.692;23.342;2023-08-07T03:51:19;3.67;;;2.55;;
52956;SDS011;38819;42.692;23.342;2023-08-07T03:53:44;2.80;;;2.60;;
52956;SDS011;38819;42.692;23.342;2023-08-07T03:56:09;3.00;;;2.80;;
52956;SDS011;38819;42.692;23.342;2023-08-07T03:58:35;3.20;;;2.90;;
52956;SDS011;38819;42.692;23.342;2023-08-07T04:01:00;3.03;;;2.83;;
52956;SDS011;38819;42.692;23.342;2023-08-07T04:03:26;4.10;;;2.90;;
52956;SDS011;38819;42.692;23.342;2023-08-07T04:05:52;4.43;;;3.20;;
52956;SDS011;38819;42.692;23.342;2023-08-07T04:08:18;5.30;;;2.80;;
52956;SDS011;38819;42.692;23.342;2023-08-07T04:10:44;3.17;;;2.67;;
52956;SDS011;38819;42.692;23.342;2023-08-07T04:13:10;3.50;;;2.20;;
52956;SDS011;38819;42.692;23.342;2023-08-07T04:15:35;2.45;;;2.35;;
52956;SDS011;38819;42.692;23.342;2023-08-07T04:18:00;3.17;;;2.50;;
52956;SDS011;38819;42.692;23.342;2023-08-07T04:20:26;2.30;;;2.17;;
52956;SDS011;38819;42.692;23.342;2023-08-07T04:22:51;2.67;;;2.33;;
52956;SDS011;38819;42.692;23.342;2023-08-07T04:25:17;3.33;;;2.42;;
52956;SDS011;38819;42.692;23.342;2023-08-07T04:27:42;4.95;;;2.60;;
52956;SDS011;38819;42.692;23.342;2023-08-07T04:30:08;3.85;;;2.28;;
52956;SDS011;38819;42.692;23.342;2023-08-07T04:32:33;5.05;;;2.45;;
52956;SDS011;38819;42.692;23.342;2023-08-07T04:34:59;2.42;;;2.22;;
52956;SDS011;38819;42.692;23.342;2023-08-07T04:37:24;3.00;;;2.40;;
52956;SDS011;38819;42.692;23.342;2023-08-07T04:39:50;3.17;;;2.45;;
52956;SDS011;38819;42.692;23.342;2023-08-07T04:42:15;5.63;;;2.75;;
52956;SDS011;38819;42.692;23.342;2023-08-07T04:44:41;3.20;;;2.17;;
52956;SDS011;38819;42.692;23.342;2023-08-07T04:47:06;3.17;;;2.88;;
52956;SDS011;38819;42.692;23.342;2023-08-07T04:49:31;2.45;;;2.35;;
52956;SDS011;38819;42.692;23.342;2023-08-07T04:51:57;2.72;;;2.53;;
52956;SDS011;38819;42.692;23.342;2023-08-07T04:54:22;4.70;;;2.20;;
52956;SDS011;38819;42.692;23.342;2023-08-07T04:56:48;3.08;;;2.05;;
52956;SDS011;38819;42.692;23.342;2023-08-07T04:59:13;4.53;;;2.45;;
52956;SDS011;38819;42.692;23.342;2023-08-07T05:01:38;2.47;;;2.28;;
52956;SDS011;38819;42.692;23.342;2023-08-07T05:04:04;2.13;;;2.03;;
52956;SDS011;38819;42.692;23.342;2023-08-07T05:06:30;3.80;;;2.30;;
52956;SDS011;38819;42.692;23.342;2023-08-07T05:08:56;3.33;;;2.40;;
52956;SDS011;38819;42.692;23.342;2023-08-07T05:11:21;5.38;;;2.28;;
52956;SDS011;38819;42.692;23.342;2023-08-07T05:13:47;4.32;;;2.50;;
52956;SDS011;38819;42.692;23.342;2023-08-07T05:16:12;2.42;;;2.20;;
52956;SDS011;38819;42.692;23.342;2023-08-07T05:18:38;2.92;;;2.20;;
52956;SDS011;38819;42.692;23.342;2023-08-07T05:21:03;2.65;;;2.10;;
52956;SDS011;38819;42.692;23.342;2023-08-07T05:23:28;2.60;;;2.40;;
52956;SDS011;38819;42.692;23.342;2023-08-07T05:25:54;3.47;;;1.90;;
52956;SDS011;38819;42.692;23.342;2023-08-07T05:28:19;2.17;;;2.08;;
52956;SDS011;38819;42.692;23.342;2023-08-07T05:30:44;4.10;;;2.20;;
52956;SDS011;38819;42.692;23.342;2023-08-07T05:33:10;2.90;;;2.10;;
52956;SDS011;38819;42.692;23.342;2023-08-07T05:35:37;2.00;;;1.90;;
52956;SDS011;38819;42.692;23.342;2023-08-07T05:38:03;2.05;;;1.92;;
52956;SDS011;38819;42.692;23.342;2023-08-07T05:40:29;2.92;;;2.15;;
52956;SDS011;38819;42.692;23.342;2023-08-07T05:42:54;2.40;;;2.20;;
52956;SDS011;38819;42.692;23.342;2023-08-07T05:45:20;2.30;;;2.10;;
52956;SDS011;38819;42.692;23.342;2023-08-07T05:47:45;2.22;;;2.13;;
52956;SDS011;38819;42.692;23.342;2023-08-07T05:50:11;7.95;;;1.90;;
52956;SDS011;38819;42.692;23.342;2023-08-07T05:52:36;3.00;;;1.95;;
52956;SDS011;38819;42.692;23.342;2023-08-07T05:55:02;2.75;;;2.22;;
52956;SDS011;38819;42.692;23.342;2023-08-07T05:57:31;2.38;;;2.28;;
52956;SDS011;38819;42.692;23.342;2023-08-07T05:59:56;5.40;;;1.92;;
52956;SDS011;38819;42.692;23.342;2023-08-07T06:02:22;2.13;;;2.03;;
52956;SDS011;38819;42.692;23.342;2023-08-07T06:04:47;3.70;;;2.13;;
52956;SDS011;38819;42.692;23.342;2023-08-07T06:07:13;3.55;;;1.70;;
52956;SDS011;38819;42.692;23.342;2023-08-07T06:09:39;2.22;;;1.98;;
52956;SDS011;38819;42.692;23.342;2023-08-07T06:12:04;2.92;;;2.10;;
52956;SDS011;38819;42.692;23.342;2023-08-07T06:14:30;2.78;;;1.60;;
52956;SDS011;38819;42.692;23.342;2023-08-07T06:16:55;4.75;;;2.10;;
52956;SDS011;38819;42.692;23.342;2023-08-07T06:19:23;1.77;;;1.67;;
52956;SDS011;38819;42.692;23.342;2023-08-07T06:21:48;1.92;;;1.70;;
52956;SDS011;38819;42.692;23.342;2023-08-07T06:24:14;3.67;;;2.70;;
52956;SDS011;38819;42.692;23.342;2023-08-07T06:26:39;3.17;;;1.98;;
52956;SDS011;38819;42.692;23.342;2023-08-07T06:29:05;1.80;;;1.70;;
52956;SDS011;38819;42.692;23.342;2023-08-07T06:31:30;2.13;;;1.92;;
52956;SDS011;38819;42.692;23.342;2023-08-07T06:33:55;2.90;;;1.60;;
52956;SDS011;38819;42.692;23.342;2023-08-07T06:36:21;2.47;;;1.90;;
52956;SDS011;38819;42.692;23.342;2023-08-07T06:38:47;4.13;;;1.80;;
52956;SDS011;38819;42.692;23.342;2023-08-07T06:41:12;3.45;;;2.13;;
52956;SDS011;38819;42.692;23.342;2023-08-07T06:43:37;1.70;;;1.60;;
52956;SDS011;38819;42.692;23.342;2023-08-07T06:46:03;1.63;;;1.10;;
52956;SDS011;38819;42.692;23.342;2023-08-07T06:48:28;2.63;;;1.00;;
52956;SDS011;38819;42.692;23.342;2023-08-07T06:50:54;1.00;;;1.00;;
52956;SDS011;38819;42.692;23.342;2023-08-07T06:53:19;1.40;;;1.30;;
52956;SDS011;38819;42.692;23.342;2023-08-07T06:55:45;2.13;;;1.55;;
52956;SDS011;38819;42.692;23.342;2023-08-07T06:58:10;1.95;;;1.40;;
52956;SDS011;38819;42.692;23.342;2023-08-07T07:00:36;1.38;;;0.88;;
52956;SDS011;38819;42.692;23.342;2023-08-07T07:03:02;2.95;;;1.05;;
52956;SDS011;38819;42.692;23.342;2023-08-07T07:05:28;1.10;;;1.00;;
52956;SDS011;38819;42.692;23.342;2023-08-07T07:07:55;3.00;;;1.33;;
52956;SDS011;38819;42.692;23.342;2023-08-07T07:10:21;2.72;;;1.33;;
52956;SDS011;38819;42.692;23.342;2023-08-07T07:12:46;1.30;;;1.25;;
52956;SDS011;38819;42.692;23.342;2023-08-07T07:15:12;1.33;;;1.10;;
52956;SDS011;38819;42.692;23.342;2023-08-07T07:17:38;1.65;;;1.40;;
52956;SDS011;38819;42.692;23.342;2023-08-07T07:20:03;1.23;;;1.15;;
52956;SDS011;38819;42.692;23.342;2023-08-07T07:22:29;1.13;;;1.02;;
52956;SDS011;38819;42.692;23.342;2023-08-07T07:24:55;1.52;;;1.40;;
52956;SDS011;38819;42.692;23.342;2023-08-07T07:27:20;1.05;;;1.02;;
52956;SDS011;38819;42.692;23.342;2023-08-07T07:29:47;2.30;;;1.77;;
52956;SDS011;38819;42.692;23.342;2023-08-07T07:32:15;1.73;;;1.35;;
52956;SDS011;38819;42.692;23.342;2023-08-07T07:34:41;0.90;;;0.90;;
52956;SDS011;38819;42.692;23.342;2023-08-07T07:37:06;1.08;;;0.98;;
52956;SDS011;38819;42.692;23.342;2023-08-07T07:39:32;3.28;;;0.93;;
52956;SDS011;38819;42.692;23.342;2023-08-07T07:44:24;1.23;;;1.00;;
52956;SDS011;38819;42.692;23.342;2023-08-07T07:46:50;1.52;;;1.42;;
52956;SDS011;38819;42.692;23.342;2023-08-07T07:49:15;2.75;;;1.42;;
52956;SDS011;38819;42.692;23.342;2023-08-07T07:51:41;2.63;;;1.00;;
52956;SDS011;38819;42.692;23.342;2023-08-07T07:54:09;2.58;;;1.88;;
52956;SDS011;38819;42.692;23.342;2023-08-07T07:56:35;2.90;;;1.30;;
52956;SDS011;38819;42.692;23.342;2023-08-07T07:59:00;2.33;;;2.13;;
52956;SDS011;38819;42.692;23.342;2023-08-07T08:01:26;1.55;;;1.05;;
52956;SDS011;38819;42.692;23.342;2023-08-07T08:03:51;1.23;;;1.15;;
52956;SDS011;38819;42.692;23.342;2023-08-07T08:06:17;1.85;;;1.00;;
52956;SDS011;38819;42.692;23.342;2023-08-07T08:08:42;1.88;;;1.52;;
52956;SDS011;38819;42.692;23.342;2023-08-07T08:11:08;0.90;;;0.90;;
52956;SDS011;38819;42.692;23.342;2023-08-07T08:13:33;1.45;;;1.10;;
52956;SDS011;38819;42.692;23.342;2023-08-07T08:16:00;2.83;;;0.93;;
52956;SDS011;38819;42.692;23.342;2023-08-07T08:18:26;1.92;;;1.00;;
52956;SDS011;38819;42.692;23.342;2023-08-07T08:20:51;2.08;;;1.65;;
52956;SDS011;38819;42.692;23.342;2023-08-07T08:23:17;3.35;;;1.63;;
52956;SDS011;38819;42.692;23.342;2023-08-07T08:25:42;3.22;;;0.93;;
52956;SDS011;38819;42.692;23.342;2023-08-07T08:28:07;1.45;;;1.27;;
52956;SDS011;38819;42.692;23.342;2023-08-07T08:30:33;1.13;;;0.90;;
52956;SDS011;38819;42.692;23.342;2023-08-07T08:32:58;2.83;;;1.70;;
52956;SDS011;38819;42.692;23.342;2023-08-07T08:35:24;0.98;;;0.90;;
52956;SDS011;38819;42.692;23.342;2023-08-07T08:37:49;2.67;;;2.25;;
52956;SDS011;38819;42.692;23.342;2023-08-07T08:40:15;0.90;;;0.90;;
52956;SDS011;38819;42.692;23.342;2023-08-07T08:45:12;0.90;;;0.88;;
52956;SDS011;38819;42.692;23.342;2023-08-07T08:47:39;0.73;;;0.73;;
52956;SDS011;38819;42.692;23.342;2023-08-07T08:50:10;5.07;;;1.33;;
52956;SDS011;38819;42.692;23.342;2023-08-07T08:52:38;2.30;;;0.82;;
52956;SDS011;38819;42.692;23.342;2023-08-07T08:55:05;1.55;;;1.35;;
52956;SDS011;38819;42.692;23.342;2023-08-07T08:57:32;1.00;;;1.00;;
52956;SDS011;38819;42.692;23.342;2023-08-07T08:59:58;1.15;;;0.85;;
52956;SDS011;38819;42.692;23.342;2023-08-07T09:02:25;0.90;;;0.90;;
52956;SDS011;38819;42.692;23.342;2023-08-07T09:04:51;0.93;;;0.77;;
52956;SDS011;38819;42.692;23.342;2023-08-07T09:07:16;1.75;;;1.55;;
52956;SDS011;38819;42.692;23.342;2023-08-07T09:09:44;3.72;;;1.17;;
52956;SDS011;38819;42.692;23.342;2023-08-07T09:12:23;0.80;;;0.80;;
52956;SDS011;38819;42.692;23.342;2023-08-07T09:14:56;7.15;;;1.63;;
52956;SDS011;38819;42.692;23.342;2023-08-07T09:17:33;1.98;;;0.90;;
52956;SDS011;38819;42.692;23.342;2023-08-07T09:20:03;0.90;;;0.90;;
52956;SDS011;38819;42.692;23.342;2023-08-07T09:22:29;1.70;;;1.33;;
52956;SDS011;38819;42.692;23.342;2023-08-07T09:24:55;1.08;;;0.88;;
52956;SDS011;38819;42.692;23.342;2023-08-07T09:27:21;0.80;;;0.80;;
52956;SDS011;38819;42.692;23.342;2023-08-07T09:29:46;0.93;;;0.90;;
52956;SDS011;38819;42.692;23.342;2023-08-07T09:32:13;2.53;;;1.10;;
52956;SDS011;38819;42.692;23.342;2023-08-07T09:34:39;1.77;;;0.93;;
52956;SDS011;38819;42.692;23.342;2023-08-07T09:37:05;1.43;;;0.97;;
52956;SDS011;38819;42.692;23.342;2023-08-07T09:39:32;1.63;;;0.80;;
52956;SDS011;38819;42.692;23.342;2023-08-07T09:41:58;0.88;;;0.80;;
52956;SDS011;38819;42.692;23.342;2023-08-07T09:44:23;0.85;;;0.85;;
52956;SDS011;38819;42.692;23.342;2023-08-07T09:46:49;2.50;;;1.10;;
52956;SDS011;38819;42.692;23.342;2023-08-07T09:49:14;2.05;;;1.00;;
52956;SDS011;38819;42.692;23.342;2023-08-07T09:51:43;1.70;;;1.00;;
52956;SDS011;38819;42.692;23.342;2023-08-07T09:54:09;0.60;;;0.60;;
52956;SDS011;38819;42.692;23.342;2023-08-07T09:56:35;3.95;;;0.98;;
52956;SDS011;38819;42.692;23.342;2023-08-07T09:59:01;0.80;;;0.80;;
52956;SDS011;38819;42.692;23.342;2023-08-07T10:01:26;1.67;;;0.68;;
52956;SDS011;38819;42.692;23.342;2023-08-07T10:03:52;0.90;;;0.90;;
52956;SDS011;38819;42.692;23.342;2023-08-07T10:06:18;0.70;;;0.70;;
52956;SDS011;38819;42.692;23.342;2023-08-07T10:08:44;1.35;;;0.93;;
52956;SDS011;38819;42.692;23.342;2023-08-07T10:11:11;0.73;;;0.60;;
52956;SDS011;38819;42.692;23.342;2023-08-07T10:13:40;1.55;;;0.90;;
52956;SDS011;38819;42.692;23.342;2023-08-07T10:16:06;1.98;;;1.77;;
52956;SDS011;38819;42.692;23.342;2023-08-07T10:18:32;0.98;;;0.93;;
52956;SDS011;38819;42.692;23.342;2023-08-07T10:20:58;4.43;;;1.33;;
52956;SDS011;38819;42.692;23.342;2023-08-07T10:23:26;1.90;;;1.00;;
52956;SDS011;38819;42.692;23.342;2023-08-07T10:25:51;1.52;;;1.25;;
52956;SDS011;38819;42.692;23.342;2023-08-07T10:28:18;1.20;;;1.10;;
52956;SDS011;38819;42.692;23.342;2023-08-07T10:30:45;1.17;;;0.80;;
52956;SDS011;38819;42.692;23.342;2023-08-07T10:33:11;3.65;;;1.88;;
52956;SDS011;38819;42.692;23.342;2023-08-07T10:35:39;1.00;;;1.00;;
52956;SDS011;38819;42.692;23.342;2023-08-07T10:38:10;0.70;;;0.70;;
52956;SDS011;38819;42.692;23.342;2023-08-07T10:43:24;0.70;;;0.70;;
52956;SDS011;38819;42.692;23.342;2023-08-07T10:45:50;2.47;;;1.10;;
52956;SDS011;38819;42.692;23.342;2023-08-07T10:48:19;2.75;;;1.10;;
52956;SDS011;38819;42.692;23.342;2023-08-07T10:53:31;4.40;;;1.30;;
52956;SDS011;38819;42.692;23.342;2023-08-07T10:55:58;1.17;;;1.08;;
52956;SDS011;38819;42.692;23.342;2023-08-07T10:58:31;1.35;;;1.25;;
52956;SDS011;38819;42.692;23.342;2023-08-07T11:03:54;1.38;;;1.27;;
52956;SDS011;38819;42.692;23.342;2023-08-07T11:06:26;5.45;;;1.63;;
52956;SDS011;38819;42.692;23.342;2023-08-07T11:08:56;2.17;;;1.73;;
52956;SDS011;38819;42.692;23.342;2023-08-07T11:11:22;1.35;;;0.90;;
52956;SDS011;38819;42.692;23.342;2023-08-07T11:13:47;1.58;;;0.98;;
52956;SDS011;38819;42.692;23.342;2023-08-07T11:16:13;4.75;;;1.75;;
52956;SDS011;38819;42.692;23.342;2023-08-07T11:18:39;3.83;;;3.25;;
52956;SDS011;38819;42.692;23.342;2023-08-07T11:21:08;1.73;;;1.17;;
52956;SDS011;38819;42.692;23.342;2023-08-07T11:23:35;2.85;;;1.00;;
52956;SDS011;38819;42.692;23.342;2023-08-07T11:26:01;1.67;;;1.02;;
52956;SDS011;38819;42.692;23.342;2023-08-07T11:28:28;1.83;;;1.30;;
52956;SDS011;38819;42.692;23.342;2023-08-07T11:30:53;2.13;;;1.30;;
52956;SDS011;38819;42.692;23.342;2023-08-07T11:33:21;4.88;;;1.63;;
52956;SDS011;38819;42.692;23.342;2023-08-07T11:35:47;3.13;;;1.07;;
52956;SDS011;38819;42.692;23.342;2023-08-07T11:38:15;1.07;;;1.00;;
52956;SDS011;38819;42.692;23.342;2023-08-07T11:40:56;2.33;;;1.55;;
52956;SDS011;38819;42.692;23.342;2023-08-07T11:43:26;1.23;;;1.08;;
52956;SDS011;38819;42.692;23.342;2023-08-07T11:45:52;2.08;;;1.98;;
52956;SDS011;38819;42.692;23.342;2023-08-07T11:48:18;1.35;;;0.75;;
52956;SDS011;38819;42.692;23.342;2023-08-07T11:50:44;3.22;;;1.20;;
52956;SDS011;38819;42.692;23.342;2023-08-07T11:53:10;3.35;;;1.70;;
52956;SDS011;38819;42.692;23.342;2023-08-07T11:55:36;4.32;;;1.30;;
52956;SDS011;38819;42.692;23.342;2023-08-07T11:58:04;2.38;;;1.67;;
52956;SDS011;38819;42.692;23.342;2023-08-07T12:00:29;1.33;;;1.10;;
52956;SDS011;38819;42.692;23.342;2023-08-07T12:02:55;3.38;;;1.10;;
52956;SDS011;38819;42.692;23.342;2023-08-07T12:05:20;3.25;;;1.50;;
52956;SDS011;38819;42.692;23.342;2023-08-07T12:07:46;4.35;;;1.27;;
52956;SDS011;38819;42.692;23.342;2023-08-07T12:12:38;3.05;;;1.20;;
52956;SDS011;38819;42.692;23.342;2023-08-07T12:15:08;0.88;;;0.88;;
52956;SDS011;38819;42.692;23.342;2023-08-07T12:17:35;2.50;;;0.98;;
52956;SDS011;38819;42.692;23.342;2023-08-07T12:20:04;1.98;;;1.02;;
52956;SDS011;38819;42.692;23.342;2023-08-07T12:22:35;1.52;;;1.40;;
52956;SDS011;38819;42.692;23.342;2023-08-07T12:25:01;2.55;;;1.48;;
52956;SDS011;38819;42.692;23.342;2023-08-07T12:27:27;1.08;;;1.08;;
52956;SDS011;38819;42.692;23.342;2023-08-07T12:29:52;2.22;;;1.15;;
52956;SDS011;38819;42.692;23.342;2023-08-07T12:32:18;2.33;;;1.00;;
52956;SDS011;38819;42.692;23.342;2023-08-07T12:34:43;2.53;;;0.90;;
52956;SDS011;38819;42.692;23.342;2023-08-07T12:37:09;2.90;;;1.10;;
52956;SDS011;38819;42.692;23.342;2023-08-07T12:39:34;2.42;;;0.90;;
52956;SDS011;38819;42.692;23.342;2023-08-07T12:41:59;1.30;;;1.20;;
52956;SDS011;38819;42.692;23.342;2023-08-07T12:44:25;2.72;;;1.00;;
52956;SDS011;38819;42.692;23.342;2023-08-07T12:46:50;1.60;;;0.90;;
52956;SDS011;38819;42.692;23.342;2023-08-07T12:49:16;2.75;;;1.25;;
52956;SDS011;38819;42.692;23.342;2023-08-07T12:51:44;1.27;;;1.00;;
52956;SDS011;38819;42.692;23.342;2023-08-07T12:54:09;3.90;;;1.15;;
52956;SDS011;38819;42.692;23.342;2023-08-07T12:56:35;8.10;;;1.40;;
52956;SDS011;38819;42.692;23.342;2023-08-07T12:59:01;1.30;;;0.85;;
52956;SDS011;38819;42.692;23.342;2023-08-07T13:01:26;1.35;;;1.02;;
52956;SDS011;38819;42.692;23.342;2023-08-07T13:03:52;0.93;;;0.93;;
52956;SDS011;38819;42.692;23.342;2023-08-07T13:06:17;6.00;;;2.33;;
52956;SDS011;38819;42.692;23.342;2023-08-07T13:08:42;3.78;;;1.48;;
52956;SDS011;38819;42.692;23.342;2023-08-07T13:11:08;4.68;;;2.17;;
52956;SDS011;38819;42.692;23.342;2023-08-07T13:13:33;6.20;;;1.50;;
52956;SDS011;38819;42.692;23.342;2023-08-07T13:15:59;1.65;;;1.48;;
52956;SDS011;38819;42.692;23.342;2023-08-07T13:18:24;4.90;;;0.90;;
52956;SDS011;38819;42.692;23.342;2023-08-07T13:20:50;7.03;;;1.25;;
52956;SDS011;38819;42.692;23.342;2023-08-07T13:23:15;1.50;;;1.40;;
52956;SDS011;38819;42.692;23.342;2023-08-07T13:25:40;3.67;;;2.08;;
52956;SDS011;38819;42.692;23.342;2023-08-07T13:28:06;3.28;;;1.65;;
52956;SDS011;38819;42.692;23.342;2023-08-07T13:30:35;2.28;;;1.30;;
52956;SDS011;38819;42.692;23.342;2023-08-07T13:33:01;3.05;;;1.20;;
52956;SDS011;38819;42.692;23.342;2023-08-07T13:35:26;1.40;;;1.23;;
52956;SDS011;38819;42.692;23.342;2023-08-07T13:37:52;1.98;;;1.33;;
52956;SDS011;38819;42.692;23.342;2023-08-07T13:40:17;3.42;;;1.08;;
52956;SDS011;38819;42.692;23.342;2023-08-07T13:42:43;1.08;;;0.98;;
52956;SDS011;38819;42.692;23.342;2023-08-07T13:45:09;3.10;;;1.00;;
52956;SDS011;38819;42.692;23.342;2023-08-07T13:47:35;1.45;;;1.00;;
52956;SDS011;38819;42.692;23.342;2023-08-07T13:50:01;3.55;;;1.17;;
52956;SDS011;38819;42.692;23.342;2023-08-07T13:52:27;1.05;;;0.90;;
52956;SDS011;38819;42.692;23.342;2023-08-07T13:54:52;1.83;;;1.15;;
52956;SDS011;38819;42.692;23.342;2023-08-07T13:57:18;0.98;;;0.90;;
52956;SDS011;38819;42.692;23.342;2023-08-07T13:59:43;2.42;;;1.15;;
52956;SDS011;38819;42.692;23.342;2023-08-07T14:02:08;0.77;;;0.77;;
52956;SDS011;38819;42.692;23.342;2023-08-07T14:04:34;1.50;;;1.40;;
52956;SDS011;38819;42.692;23.342;2023-08-07T14:07:00;2.92;;;1.73;;
52956;SDS011;38819;42.692;23.342;2023-08-07T14:09:27;3.05;;;1.58;;
52956;SDS011;38819;42.692;23.342;2023-08-07T14:11:52;1.83;;;1.73;;
52956;SDS011;38819;42.692;23.342;2023-08-07T14:14:18;1.05;;;1.05;;
52956;SDS011;38819;42.692;23.342;2023-08-07T14:16:43;1.25;;;1.05;;
52956;SDS011;38819;42.692;23.342;2023-08-07T14:19:09;1.75;;;1.65;;
52956;SDS011;38819;42.692;23.342;2023-08-07T14:21:34;2.38;;;1.48;;
52956;SDS011;38819;42.692;23.342;2023-08-07T14:24:00;2.70;;;1.02;;
52956;SDS011;38819;42.692;23.342;2023-08-07T14:26:25;2.38;;;1.20;;
52956;SDS011;38819;42.692;23.342;2023-08-07T14:28:51;1.17;;;1.00;;
52956;SDS011;38819;42.692;23.342;2023-08-07T14:31:17;4.30;;;3.40;;
52956;SDS011;38819;42.692;23.342;2023-08-07T14:33:42;3.40;;;2.10;;
52956;SDS011;38819;42.692;23.342;2023-08-07T14:36:07;1.88;;;1.15;;
52956;SDS011;38819;42.692;23.342;2023-08-07T14:38:33;3.17;;;1.48;;
52956;SDS011;38819;42.692;23.342;2023-08-07T14:40:58;1.75;;;1.58;;
52956;SDS011;38819;42.692;23.342;2023-08-07T14:43:24;1.05;;;1.05;;
52956;SDS011;38819;42.692;23.342;2023-08-07T14:45:53;3.22;;;1.30;;
52956;SDS011;38819;42.692;23.342;2023-08-07T14:48:20;2.40;;;1.80;;
52956;SDS011;38819;42.692;23.342;2023-08-07T14:50:45;2.55;;;1.40;;